createdAt,value
2022-10-24T00:01:44.938Z,2.23
2022-10-24T00:04:13.071Z,2.17
2022-10-24T00:06:42.443Z,2.70
2022-10-24T00:09:11.929Z,1.93
2022-10-24T00:11:43.782Z,2.33
2022-10-24T00:14:12.706Z,2.23
2022-10-24T00:16:40.920Z,2.23
2022-10-24T00:20:07.910Z,2.40
2022-10-24T00:23:01.694Z,1.83
2022-10-24T00:25:31.539Z,2.07
2022-10-24T00:27:59.717Z,1.97
2022-10-24T00:30:28.279Z,2.43
2022-10-24T00:32:57.007Z,2.13
2022-10-24T00:35:25.383Z,2.40
2022-10-24T00:37:53.662Z,2.23
2022-10-24T00:40:22.561Z,2.37
2022-10-24T00:42:52.220Z,2.17
2022-10-24T00:45:46.360Z,2.23
2022-10-24T00:48:25.301Z,1.90
2022-10-24T00:50:56.784Z,2.23
2022-10-24T00:53:26.488Z,2.50
2022-10-24T00:55:59.266Z,2.00
2022-10-24T00:58:31.884Z,2.40
2022-10-24T01:01:42.173Z,1.83
2022-10-24T01:04:13.433Z,1.93
2022-10-24T01:06:48.623Z,2.03
2022-10-24T01:09:29.033Z,2.00
2022-10-24T01:12:09.312Z,2.07
2022-10-24T01:14:48.988Z,1.93
2022-10-24T01:17:22.141Z,2.03
2022-10-24T01:20:26.230Z,1.77
2022-10-24T01:23:05.456Z,2.00
2022-10-24T01:25:45.120Z,2.03
2022-10-24T01:28:15.842Z,1.70
2022-10-24T01:30:49.449Z,1.60
2022-10-24T01:33:24.283Z,2.30
2022-10-24T01:35:57.374Z,2.17
2022-10-24T01:38:30.047Z,1.80
2022-10-24T01:41:01.686Z,1.70
2022-10-24T01:43:34.325Z,1.53
2022-10-24T01:46:06.091Z,1.60
2022-10-24T01:48:39.843Z,2.00
2022-10-24T01:51:10.489Z,1.80
2022-10-24T01:53:39.386Z,1.57
2022-10-24T01:56:08.313Z,1.80
2022-10-24T01:58:36.820Z,1.70
2022-10-24T02:01:11.327Z,1.60
2022-10-24T02:03:44.123Z,1.73
2022-10-24T02:06:17.279Z,1.80
2022-10-24T02:08:53.237Z,1.77
2022-10-24T02:11:21.748Z,1.80
2022-10-24T02:13:57.224Z,1.87
2022-10-24T02:16:27.361Z,1.53
2022-10-24T02:18:57.535Z,1.67
2022-10-24T02:21:33.426Z,1.40
2022-10-24T02:24:05.677Z,1.70
2022-10-24T02:26:38.974Z,1.70
2022-10-24T02:29:12.531Z,1.70
2022-10-24T02:31:45.851Z,1.63
2022-10-24T02:34:15.513Z,1.40
2022-10-24T02:36:46.053Z,2.07
2022-10-24T02:39:14.710Z,1.43
2022-10-24T02:41:45.536Z,1.47
2022-10-24T02:44:17.536Z,1.80
2022-10-24T02:46:49.152Z,2.00
2022-10-24T02:49:17.949Z,1.80
2022-10-24T02:51:47.510Z,1.90
2022-10-24T02:54:16.351Z,1.43
2022-10-24T02:56:49.485Z,1.83
2022-10-24T02:59:17.731Z,1.53
2022-10-24T03:01:47.484Z,2.07
2022-10-24T03:04:15.974Z,1.37
2022-10-24T03:06:44.359Z,1.97
2022-10-24T03:09:12.938Z,1.83
2022-10-24T03:11:41.607Z,1.80
2022-10-24T03:14:09.749Z,2.87
2022-10-24T03:16:38.001Z,1.60
2022-10-24T03:19:07.617Z,1.70
2022-10-24T03:21:36.797Z,1.50
2022-10-24T03:24:05.386Z,1.80
2022-10-24T03:26:33.818Z,1.70
2022-10-24T03:29:02.126Z,1.60
2022-10-24T03:31:31.660Z,1.80
2022-10-24T03:34:00.249Z,1.80
2022-10-24T03:36:29.791Z,2.20
2022-10-24T03:38:58.296Z,1.60
2022-10-24T03:41:26.573Z,1.53
2022-10-24T03:43:54.754Z,2.00
2022-10-24T03:46:23.037Z,1.70
2022-10-24T03:48:51.313Z,2.33
2022-10-24T03:51:19.449Z,1.53
2022-10-24T03:53:49.293Z,1.80
2022-10-24T03:56:17.575Z,2.00
2022-10-24T03:58:45.788Z,1.90
2022-10-24T04:01:17.501Z,2.23
2022-10-24T04:03:53.871Z,1.90
2022-10-24T04:06:22.234Z,1.80
2022-10-24T04:08:51.737Z,1.90
2022-10-24T04:11:20.248Z,1.60
2022-10-24T04:13:48.859Z,1.70
2022-10-24T04:16:18.056Z,1.50
2022-10-24T04:18:46.666Z,1.80
2022-10-24T04:21:19.335Z,1.60
2022-10-24T04:23:51.686Z,2.50
2022-10-24T04:26:20.194Z,2.17
2022-10-24T04:28:48.303Z,1.80
2022-10-24T04:31:19.531Z,2.00
2022-10-24T04:33:50.853Z,1.83
2022-10-24T04:36:19.313Z,2.37
2022-10-24T04:38:47.513Z,1.63
2022-10-24T04:41:17.995Z,2.10
2022-10-24T04:43:46.171Z,2.13
2022-10-24T04:46:14.299Z,2.80
2022-10-24T04:48:42.522Z,1.90
2022-10-24T04:51:10.688Z,2.17
2022-10-24T04:53:39.002Z,2.00
2022-10-24T04:56:08.033Z,1.97
2022-10-24T04:58:37.924Z,2.53
2022-10-24T05:01:06.425Z,2.20
2022-10-24T05:03:34.710Z,2.40
2022-10-24T05:06:03.069Z,2.03
2022-10-24T05:08:31.220Z,2.23
2022-10-24T05:10:59.784Z,2.57
2022-10-24T05:13:29.733Z,2.00
2022-10-24T05:16:00.446Z,2.33
2022-10-24T05:18:28.758Z,2.03
2022-10-24T05:20:58.174Z,2.23
2022-10-24T05:23:26.973Z,2.67
2022-10-24T05:25:55.454Z,2.00
2022-10-24T05:28:23.773Z,2.63
2022-10-24T05:30:52.235Z,2.47
2022-10-24T05:33:23.611Z,3.23
2022-10-24T05:35:52.734Z,2.33
2022-10-24T05:38:20.954Z,2.17
2022-10-24T05:40:51.576Z,2.23
2022-10-24T05:43:20.171Z,2.53
2022-10-24T05:48:19.370Z,2.20
2022-10-24T05:50:49.029Z,3.10
2022-10-24T05:53:17.197Z,2.30
2022-10-24T05:55:45.374Z,2.17
2022-10-24T05:58:13.569Z,2.73
2022-10-24T06:00:41.734Z,2.90
2022-10-24T06:03:12.444Z,2.17
2022-10-24T06:05:40.950Z,2.73
2022-10-24T06:08:11.091Z,2.90
2022-10-24T06:10:39.535Z,2.60
2022-10-24T06:13:07.950Z,2.20
2022-10-24T06:15:36.091Z,2.30
2022-10-24T06:18:04.292Z,2.30
2022-10-24T06:20:32.610Z,2.30
2022-10-24T06:23:00.832Z,2.07
2022-10-24T06:25:30.323Z,2.30
2022-10-24T06:27:58.607Z,1.93
2022-10-24T06:30:26.804Z,2.57
2022-10-24T06:32:55.103Z,2.17
2022-10-24T06:35:23.532Z,2.40
2022-10-24T06:37:51.906Z,2.00
2022-10-24T06:40:20.410Z,2.00
2022-10-24T06:42:50.105Z,2.83
2022-10-24T06:45:21.345Z,2.33
2022-10-24T06:47:54.045Z,2.13
2022-10-24T06:50:22.994Z,2.20
2022-10-24T06:52:51.311Z,1.87
2022-10-24T06:55:19.568Z,1.80
2022-10-24T06:57:49.192Z,2.73
2022-10-24T07:00:18.141Z,2.27
2022-10-24T07:02:46.648Z,1.90
2022-10-24T07:05:15.603Z,2.00
2022-10-24T07:07:44.829Z,2.10
2022-10-24T07:10:15.238Z,2.27
2022-10-24T07:12:44.573Z,1.93
2022-10-24T07:15:14.683Z,2.37
2022-10-24T07:17:43.118Z,2.30
2022-10-24T07:20:13.158Z,2.53
2022-10-24T07:22:41.710Z,2.13
2022-10-24T07:25:11.017Z,1.87
2022-10-24T07:27:39.583Z,2.73
2022-10-24T07:30:09.090Z,2.07
2022-10-24T07:32:38.555Z,2.10
2022-10-24T07:35:07.557Z,2.40
2022-10-24T07:37:35.606Z,2.17
2022-10-24T07:40:03.799Z,2.30
2022-10-24T07:42:32.257Z,2.67
2022-10-24T07:45:00.341Z,2.13
2022-10-24T07:47:28.667Z,2.50
2022-10-24T07:49:58.443Z,2.47
2022-10-24T07:52:26.567Z,2.10
2022-10-24T07:54:55.341Z,3.00
2022-10-24T07:57:24.135Z,2.10
2022-10-24T07:59:52.430Z,2.93
2022-10-24T08:02:20.656Z,2.00
2022-10-24T08:04:49.177Z,2.60
2022-10-24T08:07:18.714Z,2.40
2022-10-24T08:09:51.520Z,2.33
2022-10-24T08:12:20.017Z,3.00
2022-10-24T08:14:48.152Z,2.77
2022-10-24T08:17:18.520Z,2.77
2022-10-24T08:19:46.972Z,2.40
2022-10-24T08:22:15.194Z,2.00
2022-10-24T08:24:45.464Z,3.20
2022-10-24T08:27:14.162Z,2.70
2022-10-24T08:29:42.491Z,2.50
2022-10-24T08:32:10.792Z,2.93
2022-10-24T08:34:39.346Z,3.63
2022-10-24T08:37:07.574Z,2.83
2022-10-24T08:39:35.911Z,2.67
2022-10-24T08:42:07.882Z,2.53
2022-10-24T08:44:40.253Z,3.10
2022-10-24T08:47:20.533Z,2.40
2022-10-24T08:49:53.673Z,3.03
2022-10-24T08:52:29.738Z,3.30
2022-10-24T08:55:03.326Z,2.77
2022-10-24T08:57:37.140Z,2.57
2022-10-24T09:00:15.292Z,2.93
2022-10-24T09:02:45.895Z,2.53
2022-10-24T09:05:24.524Z,2.80
2022-10-24T09:08:21.647Z,2.73
2022-10-24T09:10:56.572Z,2.87
2022-10-24T09:13:28.329Z,2.60
2022-10-24T09:15:56.744Z,3.07
2022-10-24T09:18:30.073Z,2.60
2022-10-24T09:20:59.308Z,3.03
2022-10-24T09:23:28.359Z,2.50
2022-10-24T09:25:58.937Z,2.83
2022-10-24T09:28:28.487Z,2.20
2022-10-24T09:30:56.712Z,3.00
2022-10-24T09:33:30.917Z,3.00
2022-10-24T09:36:02.664Z,2.40
2022-10-24T09:38:34.803Z,2.47
2022-10-24T09:41:06.714Z,2.20
2022-10-24T09:43:48.015Z,2.10
2022-10-24T09:46:19.452Z,2.20
2022-10-24T09:48:52.831Z,2.23
2022-10-24T09:51:32.244Z,2.70
2022-10-24T09:54:04.308Z,2.17
2022-10-24T09:56:38.652Z,1.90
2022-10-24T09:59:31.405Z,2.47
2022-10-24T10:02:34.496Z,2.00
2022-10-24T10:05:22.821Z,2.30
2022-10-24T10:07:52.295Z,2.10
2022-10-24T10:10:32.809Z,2.30
2022-10-24T10:13:05.428Z,2.17
2022-10-24T10:15:38.605Z,2.00
2022-10-24T10:18:22.132Z,1.87
2022-10-24T10:21:01.579Z,2.70
2022-10-24T10:23:32.742Z,2.40
2022-10-24T10:26:07.929Z,2.13
2022-10-24T10:28:42.545Z,2.60
2022-10-24T10:31:12.676Z,2.20
2022-10-24T10:33:51.567Z,2.20
2022-10-24T10:36:25.511Z,2.47
2022-10-24T10:38:59.942Z,2.00
2022-10-24T10:41:44.490Z,2.53
2022-10-24T10:44:35.644Z,2.57
2022-10-24T10:47:13.439Z,2.60
2022-10-24T10:49:43.206Z,2.53
2022-10-24T10:52:17.094Z,2.60
2022-10-24T10:55:00.347Z,2.50
2022-10-24T10:57:33.870Z,2.37
2022-10-24T11:00:09.185Z,1.93
2022-10-24T11:02:55.492Z,2.30
2022-10-24T11:05:53.339Z,2.70
2022-10-24T11:08:39.169Z,2.20
2022-10-24T11:11:12.614Z,2.10
2022-10-24T11:13:46.590Z,1.73
2022-10-24T11:16:20.351Z,2.10
2022-10-24T11:18:52.914Z,2.00
2022-10-24T11:21:24.959Z,2.27
2022-10-24T11:23:56.633Z,2.20
2022-10-24T11:26:32.130Z,2.27
2022-10-24T11:29:05.381Z,2.17
2022-10-24T11:31:37.965Z,2.40
2022-10-24T11:34:15.304Z,2.50
2022-10-24T11:36:50.857Z,2.00
2022-10-24T11:39:25.923Z,2.40
2022-10-24T11:41:59.555Z,2.20
2022-10-24T11:44:47.630Z,1.83
2022-10-24T11:47:43.134Z,1.80
2022-10-24T11:50:25.519Z,2.13
2022-10-24T11:52:58.755Z,1.77
2022-10-24T11:55:31.655Z,1.87
2022-10-24T11:58:01.411Z,1.97
2022-10-24T12:00:34.337Z,2.00
2022-10-24T12:03:21.924Z,2.40
2022-10-24T12:06:11.687Z,1.60
2022-10-24T12:09:16.072Z,1.70
2022-10-24T12:12:04.505Z,2.20
2022-10-24T12:14:55.711Z,1.70
2022-10-24T12:17:39.005Z,1.70
2022-10-24T12:20:12.598Z,1.70
2022-10-24T12:22:45.094Z,2.27
2022-10-24T12:25:23.784Z,1.87
2022-10-24T12:27:57.331Z,1.93
2022-10-24T12:30:27.307Z,1.57
2022-10-24T12:32:59.338Z,1.37
2022-10-24T12:35:57.577Z,1.50
2022-10-24T12:39:09.190Z,1.80
2022-10-24T12:41:43.938Z,1.67
2022-10-24T12:44:41.431Z,1.50
2022-10-24T12:47:35.330Z,1.20
2022-10-24T12:50:41.458Z,1.40
2022-10-24T12:53:31.481Z,1.27
2022-10-24T12:56:15.959Z,1.37
2022-10-24T12:58:56.660Z,1.20
2022-10-24T13:01:29.885Z,1.30
2022-10-24T13:04:29.239Z,1.43
2022-10-24T13:07:29.797Z,1.10
2022-10-24T13:10:08.918Z,1.20
2022-10-24T13:12:54.298Z,1.20
2022-10-24T13:15:41.761Z,1.40
2022-10-24T13:18:22.459Z,1.03
2022-10-24T13:21:08.005Z,1.10
2022-10-24T13:23:38.949Z,1.33
2022-10-24T13:26:07.608Z,1.07
2022-10-24T13:28:43.776Z,1.00
2022-10-24T13:31:42.975Z,1.43
2022-10-24T13:34:26.368Z,1.30
2022-10-24T13:37:13.833Z,1.63
2022-10-24T13:39:49.154Z,1.57
2022-10-24T13:42:36.355Z,1.27
2022-10-24T13:45:21.676Z,1.50
2022-10-24T13:47:56.588Z,1.50
2022-10-24T13:50:30.898Z,1.50
2022-10-24T13:53:01.587Z,1.57
2022-10-24T13:55:34.142Z,1.47
2022-10-24T13:58:10.589Z,1.60
2022-10-24T14:00:42.200Z,1.80
2022-10-24T14:03:17.859Z,1.50
2022-10-24T14:05:49.277Z,1.77
2022-10-24T14:08:23.700Z,1.40
2022-10-24T14:10:53.404Z,1.67
2022-10-24T14:13:23.857Z,1.67
2022-10-24T14:15:54.737Z,1.40
2022-10-24T14:18:24.636Z,1.47
2022-10-24T14:21:47.788Z,1.53
2022-10-24T14:24:44.493Z,1.47
2022-10-24T14:27:14.327Z,1.67
2022-10-24T14:29:53.325Z,2.10
2022-10-24T14:32:21.805Z,1.77
2022-10-24T14:34:53.127Z,1.90
2022-10-24T14:37:29.570Z,1.93
2022-10-24T14:39:58.804Z,1.70
2022-10-24T14:43:18.052Z,1.97
2022-10-24T14:46:09.590Z,1.93
2022-10-24T14:48:38.886Z,1.90
2022-10-24T14:51:11.606Z,1.90
2022-10-24T14:53:59.505Z,1.90
2022-10-24T14:56:32.019Z,1.90
2022-10-24T14:59:04.471Z,1.30
2022-10-24T15:01:35.003Z,1.93
2022-10-24T15:04:05.721Z,1.80
2022-10-24T15:06:40.864Z,1.80
2022-10-24T15:09:18.646Z,1.90
2022-10-24T15:11:48.600Z,1.80
2022-10-24T15:14:57.132Z,1.97
2022-10-24T15:17:51.289Z,1.70
2022-10-24T15:20:22.809Z,1.73
2022-10-24T15:22:56.123Z,2.00
2022-10-24T15:26:02.674Z,1.97
2022-10-24T15:29:06.400Z,2.23
2022-10-24T15:31:39.267Z,2.70
2022-10-24T15:34:10.232Z,2.37
2022-10-24T15:36:42.175Z,2.17
2022-10-24T15:39:20.573Z,2.10
2022-10-24T15:41:49.223Z,2.40
2022-10-24T15:44:26.761Z,1.93
2022-10-24T15:47:15.707Z,2.17
2022-10-24T15:50:11.464Z,1.97
2022-10-24T15:52:41.010Z,2.33
2022-10-24T15:55:18.213Z,2.07
2022-10-24T15:57:46.861Z,2.30
2022-10-24T16:00:22.881Z,2.67
2022-10-24T16:04:08.363Z,2.67
2022-10-24T16:06:43.750Z,5.33
2022-10-24T16:09:16.707Z,3.60
2022-10-24T16:11:48.992Z,2.63
2022-10-24T16:14:21.522Z,2.17
2022-10-24T16:16:50.214Z,1.20
2022-10-24T16:19:37.077Z,1.20
2022-10-24T16:22:07.644Z,1.03
2022-10-24T16:28:47.219Z,1.20
2022-10-24T16:31:19.734Z,1.63
2022-10-24T16:33:53.164Z,2.10
2022-10-24T16:36:24.795Z,3.77
2022-10-24T16:39:54.745Z,4.33
2022-10-24T16:42:25.317Z,1.80
2022-10-24T16:44:54.580Z,1.83
2022-10-24T16:47:25.260Z,1.90
2022-10-24T16:49:57.899Z,2.60
2022-10-24T16:53:05.234Z,2.70
2022-10-24T16:55:38.684Z,2.53
2022-10-24T16:58:06.840Z,1.50
2022-10-24T17:01:03.776Z,0.90
2022-10-24T17:04:35.698Z,0.80
2022-10-24T17:07:05.354Z,0.77
2022-10-24T17:09:33.469Z,0.90
2022-10-24T17:12:01.660Z,0.80
2022-10-24T17:14:32.984Z,1.10
2022-10-24T17:17:01.065Z,1.00
2022-10-24T17:19:30.674Z,1.50
2022-10-24T17:22:01.921Z,1.10
2022-10-24T17:24:31.999Z,1.20
2022-10-24T17:27:00.338Z,1.20
2022-10-24T17:29:32.632Z,2.00
2022-10-24T17:32:39.052Z,1.40
2022-10-24T17:35:08.388Z,1.13
2022-10-24T17:37:48.109Z,1.17
2022-10-24T17:40:21.993Z,1.40
2022-10-24T17:42:50.693Z,1.30
2022-10-24T17:45:22.497Z,1.90
2022-10-24T17:48:10.520Z,1.60
2022-10-24T17:50:39.385Z,1.63
2022-10-24T17:53:46.645Z,1.40
2022-10-24T17:56:23.283Z,1.70
2022-10-24T17:59:33.345Z,1.80
2022-10-24T18:02:28.781Z,1.97
2022-10-24T18:04:57.037Z,1.90
2022-10-24T18:07:25.248Z,2.20
2022-10-24T18:10:00.399Z,2.80
2022-10-24T18:13:05.886Z,2.40
2022-10-24T18:15:41.268Z,2.20
2022-10-24T18:18:11.528Z,2.17
2022-10-24T18:20:41.861Z,2.33
2022-10-24T18:23:09.994Z,2.40
2022-10-24T18:25:42.866Z,2.50
2022-10-24T18:28:50.281Z,2.23
2022-10-24T18:31:46.152Z,2.37
2022-10-24T18:34:56.077Z,2.30
2022-10-24T18:37:29.853Z,2.80
2022-10-24T18:39:58.598Z,2.67
2022-10-24T18:42:31.014Z,2.80
2022-10-24T18:45:00.311Z,3.20
2022-10-24T18:47:32.124Z,3.20
2022-10-24T18:50:02.759Z,3.27
2022-10-24T18:52:42.406Z,2.90
2022-10-24T18:55:52.166Z,3.00
2022-10-24T18:58:57.193Z,3.20
2022-10-24T19:01:48.646Z,3.27
2022-10-24T19:04:26.450Z,3.40
2022-10-24T19:06:58.799Z,3.40
2022-10-24T19:09:27.696Z,3.60
2022-10-24T19:11:56.116Z,3.50
2022-10-24T19:14:51.900Z,3.90
2022-10-24T19:21:53.912Z,4.33
2022-10-24T19:25:02.992Z,3.60
2022-10-24T19:27:38.991Z,3.63
2022-10-24T19:30:09.719Z,4.30
2022-10-24T19:32:37.948Z,4.80
2022-10-24T19:35:26.941Z,4.17
2022-10-24T19:37:55.051Z,4.30
2022-10-24T19:40:23.225Z,4.50
2022-10-24T19:42:53.339Z,4.80
2022-10-24T19:45:25.026Z,4.03
2022-10-24T19:47:56.179Z,4.00
2022-10-24T19:50:25.528Z,3.50
2022-10-24T19:52:53.632Z,3.10
2022-10-24T19:55:22.985Z,3.47
2022-10-24T19:57:52.572Z,3.50
2022-10-24T20:00:21.257Z,3.10
2022-10-24T20:03:09.371Z,3.63
2022-10-24T20:05:37.601Z,3.03
2022-10-24T20:08:05.924Z,3.00
2022-10-24T20:10:34.513Z,3.67
2022-10-24T20:13:04.208Z,3.00
2022-10-24T20:15:32.351Z,3.90
2022-10-24T20:18:00.804Z,3.30
2022-10-24T20:20:28.962Z,3.13
2022-10-24T20:22:57.061Z,2.90
2022-10-24T20:26:03.874Z,3.30
2022-10-24T20:28:39.254Z,2.90
2022-10-24T20:31:08.543Z,2.80
2022-10-24T20:33:36.870Z,3.20
2022-10-24T20:36:05.302Z,2.93
2022-10-24T20:38:34.391Z,2.80
2022-10-24T20:41:03.118Z,3.03
2022-10-24T20:43:31.548Z,2.77
2022-10-24T20:46:04.395Z,3.30
2022-10-24T20:48:32.849Z,3.10
2022-10-24T20:51:08.864Z,2.73
2022-10-24T20:53:37.344Z,2.57
2022-10-24T20:56:07.583Z,2.70
2022-10-24T20:58:38.922Z,2.50
2022-10-24T21:01:10.582Z,2.83
2022-10-24T21:03:39.843Z,3.23
2022-10-24T21:06:16.487Z,2.50
2022-10-24T21:08:44.971Z,2.50
2022-10-24T21:11:15.499Z,2.90
2022-10-24T21:13:43.788Z,2.20
2022-10-24T21:16:13.914Z,2.60
2022-10-24T21:18:41.988Z,3.07
2022-10-24T21:21:11.618Z,2.70
2022-10-24T21:23:40.173Z,2.83
2022-10-24T21:26:10.566Z,3.07
2022-10-24T21:28:38.885Z,2.50
2022-10-24T21:31:08.504Z,2.60
2022-10-24T21:33:39.446Z,2.90
2022-10-24T21:36:12.806Z,2.60
2022-10-24T21:38:41.300Z,3.20
2022-10-24T21:41:11.794Z,2.53
2022-10-24T21:43:41.316Z,3.10
2022-10-24T21:46:11.268Z,2.87
2022-10-24T21:48:42.354Z,2.57
2022-10-24T21:51:11.984Z,2.80
2022-10-24T21:53:41.348Z,2.87
2022-10-24T21:56:11.949Z,3.10
2022-10-24T21:58:40.448Z,2.90
2022-10-24T22:01:12.784Z,2.80
2022-10-24T22:03:42.890Z,2.70
2022-10-24T22:06:14.675Z,2.90
2022-10-24T22:08:43.187Z,2.83
2022-10-24T22:11:13.451Z,2.83
2022-10-24T22:13:43.062Z,2.87
2022-10-24T22:16:13.891Z,2.70
2022-10-24T22:18:44.070Z,2.73
2022-10-24T22:21:21.714Z,2.73
2022-10-24T22:23:50.160Z,2.43
2022-10-24T22:26:18.474Z,2.50
2022-10-24T22:28:46.617Z,2.70
2022-10-24T22:31:15.921Z,2.60
2022-10-24T22:33:46.290Z,2.50
2022-10-24T22:36:29.702Z,2.53
2022-10-24T22:38:58.772Z,2.83
2022-10-24T22:41:28.802Z,2.23
2022-10-24T22:43:57.685Z,2.77
2022-10-24T22:46:36.490Z,2.43
2022-10-24T22:49:17.358Z,2.40
2022-10-24T22:51:46.067Z,2.40
2022-10-24T22:54:24.401Z,2.73
2022-10-24T22:56:53.638Z,2.50
2022-10-24T22:59:22.278Z,2.20
2022-10-24T23:02:00.941Z,2.97
2022-10-24T23:05:12.335Z,2.80
2022-10-24T23:07:56.379Z,2.37
2022-10-24T23:10:25.503Z,2.53
2022-10-24T23:12:54.590Z,2.50
2022-10-24T23:15:23.876Z,2.40
2022-10-24T23:17:52.550Z,2.53
2022-10-24T23:20:28.608Z,2.70
2022-10-24T23:23:09.310Z,2.50
2022-10-24T23:25:53.727Z,2.23
2022-10-24T23:28:29.573Z,2.27
2022-10-24T23:30:58.503Z,2.73
2022-10-24T23:33:29.502Z,2.83
2022-10-24T23:36:01.181Z,2.53
2022-10-24T23:38:29.954Z,2.73
2022-10-24T23:40:58.636Z,2.53
2022-10-24T23:43:27.497Z,2.90
2022-10-24T23:46:00.305Z,2.83
2022-10-24T23:48:47.087Z,2.53
2022-10-24T23:51:26.494Z,2.63
2022-10-24T23:53:56.796Z,2.40
2022-10-24T23:56:27.097Z,3.00
2022-10-24T23:58:55.797Z,2.47
